Terminal Aerodrome Forecast
Issued by NWS

Home | Current Version | Previous Version | Text Only | Print | Product List | Glossary On
Versions: 1 2 3 4 5 6 7 8 9 10 11 12 13 14 15 16
000
FTUS43 KSGF 220500
TAFJLN
TAF
KJLN 220530Z 2206/2306 VRB03KT P6SM OVC150
     FM221400 03006KT P6SM BKN150
     FM230000 03004KT P6SM SCT150=

USA.gov is the U.S. government's official web portal to all federal, state and local government web resources and services.